sensor_id;sensor_type;location;lat;lon;timestamp;P1;durP1;ratioP1;P2;durP2;ratioP2
8466;SDS011;4270;48.148;11.648;2024-03-07T00:01:19;19.37;;;13.20;;
8466;SDS011;4270;48.148;11.648;2024-03-07T00:03:45;19.80;;;12.97;;
8466;SDS011;4270;48.148;11.648;2024-03-07T00:06:11;17.90;;;13.30;;
8466;SDS011;4270;48.148;11.648;2024-03-07T00:08:36;18.80;;;12.43;;
8466;SDS011;4270;48.148;11.648;2024-03-07T00:11:01;21.13;;;12.90;;
8466;SDS011;4270;48.148;11.648;2024-03-07T00:13:27;17.40;;;12.03;;
8466;SDS011;4270;48.148;11.648;2024-03-07T00:15:52;19.30;;;12.87;;
8466;SDS011;4270;48.148;11.648;2024-03-07T00:18:18;19.90;;;12.83;;
8466;SDS011;4270;48.148;11.648;2024-03-07T00:20:43;19.83;;;12.67;;
8466;SDS011;4270;48.148;11.648;2024-03-07T00:23:09;20.10;;;14.23;;
8466;SDS011;4270;48.148;11.648;2024-03-07T00:25:34;21.60;;;12.80;;
8466;SDS011;4270;48.148;11.648;2024-03-07T00:27:59;21.63;;;13.73;;
8466;SDS011;4270;48.148;11.648;2024-03-07T00:30:28;25.07;;;14.07;;
8466;SDS011;4270;48.148;11.648;2024-03-07T00:32:54;20.83;;;13.70;;
8466;SDS011;4270;48.148;11.648;2024-03-07T00:35:20;23.53;;;14.07;;
8466;SDS011;4270;48.148;11.648;2024-03-07T00:37:46;17.50;;;13.17;;
8466;SDS011;4270;48.148;11.648;2024-03-07T00:40:11;19.80;;;13.77;;
8466;SDS011;4270;48.148;11.648;2024-03-07T00:42:36;21.23;;;14.07;;
8466;SDS011;4270;48.148;11.648;2024-03-07T00:45:02;23.27;;;14.97;;
8466;SDS011;4270;48.148;11.648;2024-03-07T00:47:28;24.30;;;15.20;;
8466;SDS011;4270;48.148;11.648;2024-03-07T00:49:54;23.00;;;14.67;;
8466;SDS011;4270;48.148;11.648;2024-03-07T00:52:19;22.70;;;14.30;;
8466;SDS011;4270;48.148;11.648;2024-03-07T00:54:44;24.30;;;15.53;;
8466;SDS011;4270;48.148;11.648;2024-03-07T00:57:10;25.27;;;15.97;;
8466;SDS011;4270;48.148;11.648;2024-03-07T00:59:35;24.47;;;15.47;;
8466;SDS011;4270;48.148;11.648;2024-03-07T01:02:01;28.20;;;16.10;;
8466;SDS011;4270;48.148;11.648;2024-03-07T01:04:26;23.33;;;13.97;;
8466;SDS011;4270;48.148;11.648;2024-03-07T01:07:01;26.10;;;15.80;;
8466;SDS011;4270;48.148;11.648;2024-03-07T01:09:26;28.20;;;15.50;;
8466;SDS011;4270;48.148;11.648;2024-03-07T01:11:53;26.60;;;15.50;;
8466;SDS011;4270;48.148;11.648;2024-03-07T01:14:20;29.13;;;16.33;;
8466;SDS011;4270;48.148;11.648;2024-03-07T01:16:45;22.10;;;14.30;;
8466;SDS011;4270;48.148;11.648;2024-03-07T01:19:11;28.60;;;16.47;;
8466;SDS011;4270;48.148;11.648;2024-03-07T01:21:36;26.47;;;16.17;;
8466;SDS011;4270;48.148;11.648;2024-03-07T01:24:02;24.83;;;14.30;;
8466;SDS011;4270;48.148;11.648;2024-03-07T01:26:27;24.20;;;15.23;;
8466;SDS011;4270;48.148;11.648;2024-03-07T01:28:53;27.97;;;16.67;;
8466;SDS011;4270;48.148;11.648;2024-03-07T01:31:19;29.30;;;16.60;;
8466;SDS011;4270;48.148;11.648;2024-03-07T01:33:45;25.73;;;15.10;;
8466;SDS011;4270;48.148;11.648;2024-03-07T01:36:10;30.50;;;16.53;;
8466;SDS011;4270;48.148;11.648;2024-03-07T01:38:35;25.83;;;16.63;;
8466;SDS011;4270;48.148;11.648;2024-03-07T01:41:01;26.13;;;16.70;;
8466;SDS011;4270;48.148;11.648;2024-03-07T01:43:26;27.67;;;16.50;;
8466;SDS011;4270;48.148;11.648;2024-03-07T01:45:51;25.90;;;16.10;;
8466;SDS011;4270;48.148;11.648;2024-03-07T01:48:20;27.33;;;16.73;;
8466;SDS011;4270;48.148;11.648;2024-03-07T01:50:49;28.00;;;16.50;;
8466;SDS011;4270;48.148;11.648;2024-03-07T01:53:14;34.67;;;18.83;;
8466;SDS011;4270;48.148;11.648;2024-03-07T01:55:39;30.00;;;17.70;;
8466;SDS011;4270;48.148;11.648;2024-03-07T01:58:05;27.97;;;18.23;;
8466;SDS011;4270;48.148;11.648;2024-03-07T02:00:31;30.17;;;18.30;;
8466;SDS011;4270;48.148;11.648;2024-03-07T02:02:56;33.80;;;18.87;;
8466;SDS011;4270;48.148;11.648;2024-03-07T02:05:21;37.40;;;20.70;;
8466;SDS011;4270;48.148;11.648;2024-03-07T02:07:47;30.87;;;19.17;;
8466;SDS011;4270;48.148;11.648;2024-03-07T02:10:12;43.37;;;21.10;;
8466;SDS011;4270;48.148;11.648;2024-03-07T02:12:38;34.43;;;19.97;;
8466;SDS011;4270;48.148;11.648;2024-03-07T02:15:03;32.23;;;18.97;;
8466;SDS011;4270;48.148;11.648;2024-03-07T02:17:29;34.40;;;21.60;;
8466;SDS011;4270;48.148;11.648;2024-03-07T02:19:54;34.57;;;20.30;;
8466;SDS011;4270;48.148;11.648;2024-03-07T02:22:19;33.33;;;19.47;;
8466;SDS011;4270;48.148;11.648;2024-03-07T02:24:45;33.33;;;20.17;;
8466;SDS011;4270;48.148;11.648;2024-03-07T02:27:10;32.93;;;20.13;;
8466;SDS011;4270;48.148;11.648;2024-03-07T02:29:36;34.00;;;18.93;;
8466;SDS011;4270;48.148;11.648;2024-03-07T02:32:01;33.10;;;19.57;;
8466;SDS011;4270;48.148;11.648;2024-03-07T02:34:26;35.57;;;21.10;;
8466;SDS011;4270;48.148;11.648;2024-03-07T02:36:52;40.37;;;23.33;;
8466;SDS011;4270;48.148;11.648;2024-03-07T02:39:17;38.13;;;22.03;;
8466;SDS011;4270;48.148;11.648;2024-03-07T02:41:43;40.73;;;20.90;;
8466;SDS011;4270;48.148;11.648;2024-03-07T02:44:08;36.23;;;21.33;;
8466;SDS011;4270;48.148;11.648;2024-03-07T02:46:33;42.03;;;20.60;;
8466;SDS011;4270;48.148;11.648;2024-03-07T02:48:58;35.37;;;20.07;;
8466;SDS011;4270;48.148;11.648;2024-03-07T02:51:25;38.83;;;22.70;;
8466;SDS011;4270;48.148;11.648;2024-03-07T02:53:50;36.77;;;20.40;;
8466;SDS011;4270;48.148;11.648;2024-03-07T02:56:15;40.33;;;22.00;;
8466;SDS011;4270;48.148;11.648;2024-03-07T02:58:41;37.87;;;22.00;;
8466;SDS011;4270;48.148;11.648;2024-03-07T03:01:06;40.90;;;22.17;;
8466;SDS011;4270;48.148;11.648;2024-03-07T03:03:32;42.13;;;22.60;;
8466;SDS011;4270;48.148;11.648;2024-03-07T03:05:57;42.57;;;23.83;;
8466;SDS011;4270;48.148;11.648;2024-03-07T03:08:23;40.53;;;22.77;;
8466;SDS011;4270;48.148;11.648;2024-03-07T03:10:48;45.30;;;23.53;;
8466;SDS011;4270;48.148;11.648;2024-03-07T03:13:16;48.53;;;22.80;;
8466;SDS011;4270;48.148;11.648;2024-03-07T03:15:41;41.87;;;24.83;;
8466;SDS011;4270;48.148;11.648;2024-03-07T03:18:07;45.90;;;24.40;;
8466;SDS011;4270;48.148;11.648;2024-03-07T03:20:32;43.90;;;24.87;;
8466;SDS011;4270;48.148;11.648;2024-03-07T03:23:03;42.83;;;24.60;;
8466;SDS011;4270;48.148;11.648;2024-03-07T03:25:30;46.37;;;25.23;;
8466;SDS011;4270;48.148;11.648;2024-03-07T03:27:58;44.77;;;26.10;;
8466;SDS011;4270;48.148;11.648;2024-03-07T03:30:23;49.30;;;25.13;;
8466;SDS011;4270;48.148;11.648;2024-03-07T03:32:49;42.07;;;24.93;;
8466;SDS011;4270;48.148;11.648;2024-03-07T03:35:14;44.97;;;25.37;;
8466;SDS011;4270;48.148;11.648;2024-03-07T03:37:41;45.00;;;24.60;;
8466;SDS011;4270;48.148;11.648;2024-03-07T03:40:07;45.40;;;25.67;;
8466;SDS011;4270;48.148;11.648;2024-03-07T03:42:34;47.27;;;26.20;;
8466;SDS011;4270;48.148;11.648;2024-03-07T03:44:59;43.40;;;25.50;;
8466;SDS011;4270;48.148;11.648;2024-03-07T03:47:24;44.17;;;25.77;;
8466;SDS011;4270;48.148;11.648;2024-03-07T03:49:50;44.50;;;26.23;;
8466;SDS011;4270;48.148;11.648;2024-03-07T03:52:15;50.57;;;28.13;;
8466;SDS011;4270;48.148;11.648;2024-03-07T03:54:41;43.73;;;25.10;;
8466;SDS011;4270;48.148;11.648;2024-03-07T03:57:06;43.50;;;25.10;;
8466;SDS011;4270;48.148;11.648;2024-03-07T03:59:32;48.43;;;27.77;;
8466;SDS011;4270;48.148;11.648;2024-03-07T04:01:57;48.73;;;26.10;;
8466;SDS011;4270;48.148;11.648;2024-03-07T04:04:24;50.03;;;27.00;;
8466;SDS011;4270;48.148;11.648;2024-03-07T04:06:50;47.23;;;26.83;;
8466;SDS011;4270;48.148;11.648;2024-03-07T04:09:16;51.77;;;28.23;;
8466;SDS011;4270;48.148;11.648;2024-03-07T04:11:41;52.93;;;28.00;;
8466;SDS011;4270;48.148;11.648;2024-03-07T04:14:06;47.83;;;26.80;;
8466;SDS011;4270;48.148;11.648;2024-03-07T04:16:31;47.73;;;26.47;;
8466;SDS011;4270;48.148;11.648;2024-03-07T04:18:57;53.60;;;29.00;;
8466;SDS011;4270;48.148;11.648;2024-03-07T04:21:22;50.33;;;29.30;;
8466;SDS011;4270;48.148;11.648;2024-03-07T04:23:47;53.67;;;29.90;;
8466;SDS011;4270;48.148;11.648;2024-03-07T04:26:12;49.03;;;28.60;;
8466;SDS011;4270;48.148;11.648;2024-03-07T04:28:38;51.20;;;28.40;;
8466;SDS011;4270;48.148;11.648;2024-03-07T04:31:04;52.53;;;28.60;;
8466;SDS011;4270;48.148;11.648;2024-03-07T04:33:29;52.53;;;27.60;;
8466;SDS011;4270;48.148;11.648;2024-03-07T04:35:54;50.07;;;28.10;;
8466;SDS011;4270;48.148;11.648;2024-03-07T04:38:19;55.90;;;30.53;;
8466;SDS011;4270;48.148;11.648;2024-03-07T04:40:45;51.03;;;28.43;;
8466;SDS011;4270;48.148;11.648;2024-03-07T04:43:11;49.23;;;26.27;;
8466;SDS011;4270;48.148;11.648;2024-03-07T04:45:37;55.47;;;29.37;;
8466;SDS011;4270;48.148;11.648;2024-03-07T04:48:02;51.57;;;29.00;;
8466;SDS011;4270;48.148;11.648;2024-03-07T04:50:28;49.37;;;26.87;;
8466;SDS011;4270;48.148;11.648;2024-03-07T04:52:53;49.30;;;28.00;;
8466;SDS011;4270;48.148;11.648;2024-03-07T04:55:19;46.50;;;27.20;;
8466;SDS011;4270;48.148;11.648;2024-03-07T04:57:44;50.40;;;27.53;;
8466;SDS011;4270;48.148;11.648;2024-03-07T05:00:13;51.63;;;28.90;;
8466;SDS011;4270;48.148;11.648;2024-03-07T05:02:42;54.63;;;29.93;;
8466;SDS011;4270;48.148;11.648;2024-03-07T05:05:07;62.30;;;31.77;;
8466;SDS011;4270;48.148;11.648;2024-03-07T05:07:33;60.83;;;32.00;;
8466;SDS011;4270;48.148;11.648;2024-03-07T05:09:58;57.07;;;29.10;;
8466;SDS011;4270;48.148;11.648;2024-03-07T05:12:24;56.57;;;29.73;;
8466;SDS011;4270;48.148;11.648;2024-03-07T05:14:49;64.57;;;30.30;;
8466;SDS011;4270;48.148;11.648;2024-03-07T05:17:14;52.70;;;30.00;;
8466;SDS011;4270;48.148;11.648;2024-03-07T05:19:39;58.67;;;31.70;;
8466;SDS011;4270;48.148;11.648;2024-03-07T05:22:05;53.77;;;29.13;;
8466;SDS011;4270;48.148;11.648;2024-03-07T05:24:30;55.20;;;30.00;;
8466;SDS011;4270;48.148;11.648;2024-03-07T05:26:56;55.60;;;30.40;;
8466;SDS011;4270;48.148;11.648;2024-03-07T05:29:22;51.13;;;29.57;;
8466;SDS011;4270;48.148;11.648;2024-03-07T05:31:47;55.90;;;29.60;;
8466;SDS011;4270;48.148;11.648;2024-03-07T05:34:13;54.13;;;31.10;;
8466;SDS011;4270;48.148;11.648;2024-03-07T05:36:39;58.60;;;29.93;;
8466;SDS011;4270;48.148;11.648;2024-03-07T05:39:14;55.47;;;31.43;;
8466;SDS011;4270;48.148;11.648;2024-03-07T05:41:41;54.50;;;31.17;;
8466;SDS011;4270;48.148;11.648;2024-03-07T05:44:06;55.73;;;29.13;;
8466;SDS011;4270;48.148;11.648;2024-03-07T05:46:37;59.33;;;31.60;;
8466;SDS011;4270;48.148;11.648;2024-03-07T05:49:06;52.70;;;31.07;;
8466;SDS011;4270;48.148;11.648;2024-03-07T05:51:31;53.50;;;30.30;;
8466;SDS011;4270;48.148;11.648;2024-03-07T05:53:57;57.87;;;29.87;;
8466;SDS011;4270;48.148;11.648;2024-03-07T05:56:22;54.87;;;31.23;;
8466;SDS011;4270;48.148;11.648;2024-03-07T05:58:47;54.60;;;29.43;;
8466;SDS011;4270;48.148;11.648;2024-03-07T06:01:13;59.40;;;30.93;;
8466;SDS011;4270;48.148;11.648;2024-03-07T06:03:39;56.33;;;29.43;;
8466;SDS011;4270;48.148;11.648;2024-03-07T06:06:04;65.63;;;33.83;;
8466;SDS011;4270;48.148;11.648;2024-03-07T06:08:31;53.03;;;30.17;;
8466;SDS011;4270;48.148;11.648;2024-03-07T06:10:56;58.13;;;29.40;;
8466;SDS011;4270;48.148;11.648;2024-03-07T06:13:23;57.73;;;30.00;;
8466;SDS011;4270;48.148;11.648;2024-03-07T06:15:48;57.80;;;30.73;;
8466;SDS011;4270;48.148;11.648;2024-03-07T06:18:13;56.20;;;29.70;;
8466;SDS011;4270;48.148;11.648;2024-03-07T06:20:42;53.03;;;29.70;;
8466;SDS011;4270;48.148;11.648;2024-03-07T06:23:11;55.53;;;31.27;;
8466;SDS011;4270;48.148;11.648;2024-03-07T06:25:41;56.47;;;29.30;;
8466;SDS011;4270;48.148;11.648;2024-03-07T06:28:15;53.27;;;28.53;;
8466;SDS011;4270;48.148;11.648;2024-03-07T06:30:42;56.00;;;30.00;;
8466;SDS011;4270;48.148;11.648;2024-03-07T06:33:08;53.43;;;29.27;;
8466;SDS011;4270;48.148;11.648;2024-03-07T06:35:33;50.70;;;29.30;;
8466;SDS011;4270;48.148;11.648;2024-03-07T06:38:11;54.40;;;30.10;;
8466;SDS011;4270;48.148;11.648;2024-03-07T06:40:36;53.20;;;29.70;;
8466;SDS011;4270;48.148;11.648;2024-03-07T06:43:02;55.90;;;29.50;;
8466;SDS011;4270;48.148;11.648;2024-03-07T06:45:29;54.10;;;29.80;;
8466;SDS011;4270;48.148;11.648;2024-03-07T06:47:54;56.03;;;29.23;;
8466;SDS011;4270;48.148;11.648;2024-03-07T06:50:19;55.87;;;29.40;;
8466;SDS011;4270;48.148;11.648;2024-03-07T06:52:45;54.23;;;28.47;;
8466;SDS011;4270;48.148;11.648;2024-03-07T06:55:12;55.03;;;29.90;;
8466;SDS011;4270;48.148;11.648;2024-03-07T06:57:37;51.23;;;29.83;;
8466;SDS011;4270;48.148;11.648;2024-03-07T07:00:03;56.00;;;30.73;;
8466;SDS011;4270;48.148;11.648;2024-03-07T07:02:37;53.20;;;30.20;;
8466;SDS011;4270;48.148;11.648;2024-03-07T07:05:02;55.80;;;29.20;;
8466;SDS011;4270;48.148;11.648;2024-03-07T07:07:31;54.73;;;28.80;;
8466;SDS011;4270;48.148;11.648;2024-03-07T07:09:57;53.17;;;30.10;;
8466;SDS011;4270;48.148;11.648;2024-03-07T07:12:22;52.03;;;30.30;;
8466;SDS011;4270;48.148;11.648;2024-03-07T07:14:47;46.57;;;27.27;;
8466;SDS011;4270;48.148;11.648;2024-03-07T07:17:12;58.30;;;30.07;;
8466;SDS011;4270;48.148;11.648;2024-03-07T07:19:38;57.20;;;30.77;;
8466;SDS011;4270;48.148;11.648;2024-03-07T07:22:05;58.03;;;30.13;;
8466;SDS011;4270;48.148;11.648;2024-03-07T07:24:31;53.53;;;30.07;;
8466;SDS011;4270;48.148;11.648;2024-03-07T07:26:59;55.30;;;29.90;;
8466;SDS011;4270;48.148;11.648;2024-03-07T07:29:25;47.63;;;28.20;;
8466;SDS011;4270;48.148;11.648;2024-03-07T07:31:51;52.87;;;28.93;;
8466;SDS011;4270;48.148;11.648;2024-03-07T07:34:17;49.23;;;28.90;;
8466;SDS011;4270;48.148;11.648;2024-03-07T07:36:42;56.10;;;29.17;;
8466;SDS011;4270;48.148;11.648;2024-03-07T07:39:07;53.60;;;29.27;;
8466;SDS011;4270;48.148;11.648;2024-03-07T07:41:41;56.07;;;29.10;;
8466;SDS011;4270;48.148;11.648;2024-03-07T07:44:07;57.70;;;31.23;;
8466;SDS011;4270;48.148;11.648;2024-03-07T07:46:33;51.97;;;29.77;;
8466;SDS011;4270;48.148;11.648;2024-03-07T07:48:59;49.07;;;27.87;;
8466;SDS011;4270;48.148;11.648;2024-03-07T07:51:24;54.17;;;30.20;;
8466;SDS011;4270;48.148;11.648;2024-03-07T07:53:50;55.17;;;29.80;;
8466;SDS011;4270;48.148;11.648;2024-03-07T07:56:15;51.70;;;28.70;;
8466;SDS011;4270;48.148;11.648;2024-03-07T07:58:41;47.23;;;30.20;;
8466;SDS011;4270;48.148;11.648;2024-03-07T08:01:06;53.27;;;29.00;;
8466;SDS011;4270;48.148;11.648;2024-03-07T08:03:34;45.93;;;27.83;;
8466;SDS011;4270;48.148;11.648;2024-03-07T08:06:00;54.37;;;29.40;;
8466;SDS011;4270;48.148;11.648;2024-03-07T08:08:25;51.43;;;28.17;;
8466;SDS011;4270;48.148;11.648;2024-03-07T08:10:51;43.60;;;27.10;;
8466;SDS011;4270;48.148;11.648;2024-03-07T08:13:16;44.20;;;25.93;;
8466;SDS011;4270;48.148;11.648;2024-03-07T08:15:41;43.80;;;27.73;;
8466;SDS011;4270;48.148;11.648;2024-03-07T08:18:07;44.90;;;27.30;;
8466;SDS011;4270;48.148;11.648;2024-03-07T08:20:33;45.10;;;27.70;;
8466;SDS011;4270;48.148;11.648;2024-03-07T08:22:59;42.83;;;25.40;;
8466;SDS011;4270;48.148;11.648;2024-03-07T08:25:25;45.30;;;25.70;;
8466;SDS011;4270;48.148;11.648;2024-03-07T08:27:52;45.40;;;27.03;;
8466;SDS011;4270;48.148;11.648;2024-03-07T08:30:17;41.70;;;25.97;;
8466;SDS011;4270;48.148;11.648;2024-03-07T08:32:46;42.40;;;24.63;;
8466;SDS011;4270;48.148;11.648;2024-03-07T08:35:12;44.00;;;26.70;;
8466;SDS011;4270;48.148;11.648;2024-03-07T08:40:03;46.50;;;27.50;;
8466;SDS011;4270;48.148;11.648;2024-03-07T08:42:30;45.40;;;26.50;;
8466;SDS011;4270;48.148;11.648;2024-03-07T08:44:57;43.67;;;27.80;;
8466;SDS011;4270;48.148;11.648;2024-03-07T08:47:22;43.50;;;26.97;;
8466;SDS011;4270;48.148;11.648;2024-03-07T08:49:47;40.17;;;24.00;;
8466;SDS011;4270;48.148;11.648;2024-03-07T08:52:13;39.60;;;25.37;;
8466;SDS011;4270;48.148;11.648;2024-03-07T08:54:38;40.60;;;24.67;;
8466;SDS011;4270;48.148;11.648;2024-03-07T08:57:03;45.63;;;26.87;;
8466;SDS011;4270;48.148;11.648;2024-03-07T08:59:29;42.67;;;25.43;;
8466;SDS011;4270;48.148;11.648;2024-03-07T09:01:55;41.83;;;26.20;;
8466;SDS011;4270;48.148;11.648;2024-03-07T09:04:20;44.50;;;26.57;;
8466;SDS011;4270;48.148;11.648;2024-03-07T09:06:47;38.30;;;25.07;;
8466;SDS011;4270;48.148;11.648;2024-03-07T09:09:12;44.50;;;26.33;;
8466;SDS011;4270;48.148;11.648;2024-03-07T09:11:39;44.60;;;26.90;;
8466;SDS011;4270;48.148;11.648;2024-03-07T09:14:07;41.30;;;26.10;;
8466;SDS011;4270;48.148;11.648;2024-03-07T09:16:34;46.10;;;27.53;;
8466;SDS011;4270;48.148;11.648;2024-03-07T09:18:59;42.27;;;26.47;;
8466;SDS011;4270;48.148;11.648;2024-03-07T09:21:25;40.40;;;24.60;;
8466;SDS011;4270;48.148;11.648;2024-03-07T09:23:50;39.27;;;25.00;;
8466;SDS011;4270;48.148;11.648;2024-03-07T09:26:15;40.07;;;24.27;;
8466;SDS011;4270;48.148;11.648;2024-03-07T09:28:41;43.00;;;25.20;;
8466;SDS011;4270;48.148;11.648;2024-03-07T09:31:06;46.50;;;25.47;;
8466;SDS011;4270;48.148;11.648;2024-03-07T09:33:31;38.67;;;25.90;;
8466;SDS011;4270;48.148;11.648;2024-03-07T09:35:56;44.80;;;26.30;;
8466;SDS011;4270;48.148;11.648;2024-03-07T09:38:23;38.80;;;25.33;;
8466;SDS011;4270;48.148;11.648;2024-03-07T09:40:48;41.63;;;25.97;;
8466;SDS011;4270;48.148;11.648;2024-03-07T09:43:14;44.80;;;25.97;;
8466;SDS011;4270;48.148;11.648;2024-03-07T09:45:40;41.37;;;25.60;;
8466;SDS011;4270;48.148;11.648;2024-03-07T09:48:07;41.20;;;26.20;;
8466;SDS011;4270;48.148;11.648;2024-03-07T09:50:34;42.73;;;25.83;;
8466;SDS011;4270;48.148;11.648;2024-03-07T09:53:00;42.93;;;26.20;;
8466;SDS011;4270;48.148;11.648;2024-03-07T09:55:27;40.87;;;25.67;;
8466;SDS011;4270;48.148;11.648;2024-03-07T09:57:53;47.20;;;28.70;;
8466;SDS011;4270;48.148;11.648;2024-03-07T10:00:20;44.67;;;25.77;;
8466;SDS011;4270;48.148;11.648;2024-03-07T10:02:54;38.57;;;25.43;;
8466;SDS011;4270;48.148;11.648;2024-03-07T10:05:22;41.93;;;24.80;;
8466;SDS011;4270;48.148;11.648;2024-03-07T10:07:47;38.00;;;25.07;;
8466;SDS011;4270;48.148;11.648;2024-03-07T10:10:13;39.10;;;25.00;;
8466;SDS011;4270;48.148;11.648;2024-03-07T10:12:38;38.13;;;24.60;;
8466;SDS011;4270;48.148;11.648;2024-03-07T10:15:03;38.97;;;24.00;;
8466;SDS011;4270;48.148;11.648;2024-03-07T10:17:35;43.30;;;26.40;;
8466;SDS011;4270;48.148;11.648;2024-03-07T10:20:00;39.83;;;24.83;;
8466;SDS011;4270;48.148;11.648;2024-03-07T10:22:26;45.57;;;26.20;;
8466;SDS011;4270;48.148;11.648;2024-03-07T10:24:52;38.20;;;23.80;;
8466;SDS011;4270;48.148;11.648;2024-03-07T10:27:21;40.43;;;25.40;;
8466;SDS011;4270;48.148;11.648;2024-03-07T10:29:46;32.23;;;21.93;;
8466;SDS011;4270;48.148;11.648;2024-03-07T10:32:12;35.23;;;22.60;;
8466;SDS011;4270;48.148;11.648;2024-03-07T10:34:40;39.27;;;23.13;;
8466;SDS011;4270;48.148;11.648;2024-03-07T10:37:11;38.83;;;23.07;;
8466;SDS011;4270;48.148;11.648;2024-03-07T10:39:36;39.03;;;22.20;;
8466;SDS011;4270;48.148;11.648;2024-03-07T10:42:01;34.17;;;22.10;;
8466;SDS011;4270;48.148;11.648;2024-03-07T10:44:30;39.50;;;24.70;;
8466;SDS011;4270;48.148;11.648;2024-03-07T10:46:56;36.47;;;22.53;;
8466;SDS011;4270;48.148;11.648;2024-03-07T10:49:25;34.40;;;21.43;;
8466;SDS011;4270;48.148;11.648;2024-03-07T10:52:10;33.60;;;20.60;;
8466;SDS011;4270;48.148;11.648;2024-03-07T10:59:41;30.97;;;20.10;;
8466;SDS011;4270;48.148;11.648;2024-03-07T11:04:39;34.07;;;22.23;;
8466;SDS011;4270;48.148;11.648;2024-03-07T11:07:04;38.53;;;21.70;;
8466;SDS011;4270;48.148;11.648;2024-03-07T11:09:31;31.50;;;21.27;;
8466;SDS011;4270;48.148;11.648;2024-03-07T11:11:58;33.60;;;21.93;;
8466;SDS011;4270;48.148;11.648;2024-03-07T11:14:25;30.00;;;20.17;;
8466;SDS011;4270;48.148;11.648;2024-03-07T11:16:51;32.37;;;21.17;;
8466;SDS011;4270;48.148;11.648;2024-03-07T11:19:26;30.17;;;20.37;;
8466;SDS011;4270;48.148;11.648;2024-03-07T11:21:53;32.27;;;21.13;;
8466;SDS011;4270;48.148;11.648;2024-03-07T11:24:26;32.07;;;21.37;;
8466;SDS011;4270;48.148;11.648;2024-03-07T11:26:53;35.67;;;22.67;;
8466;SDS011;4270;48.148;11.648;2024-03-07T11:32:11;32.00;;;21.23;;
8466;SDS011;4270;48.148;11.648;2024-03-07T11:34:38;33.87;;;21.77;;
8466;SDS011;4270;48.148;11.648;2024-03-07T11:37:07;34.33;;;22.10;;
8466;SDS011;4270;48.148;11.648;2024-03-07T11:39:41;32.43;;;21.67;;
8466;SDS011;4270;48.148;11.648;2024-03-07T11:42:07;34.43;;;22.37;;
8466;SDS011;4270;48.148;11.648;2024-03-07T11:44:33;37.30;;;22.80;;
8466;SDS011;4270;48.148;11.648;2024-03-07T11:47:00;37.30;;;23.10;;
8466;SDS011;4270;48.148;11.648;2024-03-07T11:49:33;35.13;;;21.43;;
8466;SDS011;4270;48.148;11.648;2024-03-07T11:52:00;36.70;;;22.53;;
8466;SDS011;4270;48.148;11.648;2024-03-07T11:54:29;32.83;;;20.83;;
8466;SDS011;4270;48.148;11.648;2024-03-07T11:56:56;31.63;;;21.67;;
8466;SDS011;4270;48.148;11.648;2024-03-07T11:59:22;36.23;;;21.90;;
8466;SDS011;4270;48.148;11.648;2024-03-07T12:01:48;38.50;;;23.30;;
8466;SDS011;4270;48.148;11.648;2024-03-07T12:04:14;33.07;;;20.23;;
8466;SDS011;4270;48.148;11.648;2024-03-07T12:06:49;40.90;;;23.93;;
8466;SDS011;4270;48.148;11.648;2024-03-07T12:09:14;33.70;;;21.40;;
8466;SDS011;4270;48.148;11.648;2024-03-07T12:11:48;40.80;;;23.13;;
8466;SDS011;4270;48.148;11.648;2024-03-07T12:14:17;35.50;;;21.63;;
8466;SDS011;4270;48.148;11.648;2024-03-07T12:16:43;34.83;;;21.10;;
8466;SDS011;4270;48.148;11.648;2024-03-07T12:19:08;35.70;;;22.20;;
8466;SDS011;4270;48.148;11.648;2024-03-07T12:21:36;33.47;;;20.00;;
8466;SDS011;4270;48.148;11.648;2024-03-07T12:24:10;34.77;;;21.60;;
8466;SDS011;4270;48.148;11.648;2024-03-07T12:26:36;33.90;;;20.67;;
8466;SDS011;4270;48.148;11.648;2024-03-07T12:29:11;37.40;;;20.97;;
8466;SDS011;4270;48.148;11.648;2024-03-07T12:31:37;34.60;;;20.40;;
8466;SDS011;4270;48.148;11.648;2024-03-07T12:34:02;31.57;;;19.90;;
8466;SDS011;4270;48.148;11.648;2024-03-07T12:36:29;38.63;;;22.30;;
8466;SDS011;4270;48.148;11.648;2024-03-07T12:38:59;40.43;;;22.40;;
8466;SDS011;4270;48.148;11.648;2024-03-07T12:41:34;38.20;;;21.53;;
8466;SDS011;4270;48.148;11.648;2024-03-07T12:43:59;35.77;;;22.20;;
8466;SDS011;4270;48.148;11.648;2024-03-07T12:46:24;32.90;;;21.50;;
8466;SDS011;4270;48.148;11.648;2024-03-07T12:48:50;32.17;;;21.07;;
8466;SDS011;4270;48.148;11.648;2024-03-07T12:51:15;36.47;;;21.67;;
8466;SDS011;4270;48.148;11.648;2024-03-07T12:53:43;33.10;;;20.47;;
8466;SDS011;4270;48.148;11.648;2024-03-07T12:56:08;36.87;;;21.23;;
8466;SDS011;4270;48.148;11.648;2024-03-07T12:58:34;34.80;;;21.23;;
8466;SDS011;4270;48.148;11.648;2024-03-07T13:01:01;34.73;;;21.20;;
8466;SDS011;4270;48.148;11.648;2024-03-07T13:03:26;36.07;;;20.77;;
8466;SDS011;4270;48.148;11.648;2024-03-07T13:05:57;38.20;;;20.83;;
8466;SDS011;4270;48.148;11.648;2024-03-07T13:08:26;35.73;;;21.40;;
8466;SDS011;4270;48.148;11.648;2024-03-07T13:10:52;35.57;;;22.07;;
8466;SDS011;4270;48.148;11.648;2024-03-07T13:13:20;32.73;;;20.47;;
8466;SDS011;4270;48.148;11.648;2024-03-07T13:15:45;29.33;;;19.30;;
8466;SDS011;4270;48.148;11.648;2024-03-07T13:18:12;31.40;;;18.70;;
8466;SDS011;4270;48.148;11.648;2024-03-07T13:20:38;33.17;;;19.53;;
8466;SDS011;4270;48.148;11.648;2024-03-07T13:23:03;33.50;;;21.23;;
8466;SDS011;4270;48.148;11.648;2024-03-07T13:25:29;32.73;;;18.80;;
8466;SDS011;4270;48.148;11.648;2024-03-07T13:28:01;30.17;;;18.77;;
8466;SDS011;4270;48.148;11.648;2024-03-07T13:30:27;27.10;;;16.67;;
8466;SDS011;4270;48.148;11.648;2024-03-07T13:32:56;30.10;;;16.60;;
8466;SDS011;4270;48.148;11.648;2024-03-07T13:35:22;27.60;;;16.77;;
8466;SDS011;4270;48.148;11.648;2024-03-07T13:37:50;29.10;;;16.47;;
8466;SDS011;4270;48.148;11.648;2024-03-07T13:40:16;25.47;;;17.83;;
8466;SDS011;4270;48.148;11.648;2024-03-07T13:42:47;28.10;;;17.20;;
8466;SDS011;4270;48.148;11.648;2024-03-07T13:45:13;28.40;;;17.73;;
8466;SDS011;4270;48.148;11.648;2024-03-07T13:47:41;25.83;;;17.23;;
8466;SDS011;4270;48.148;11.648;2024-03-07T13:50:10;34.10;;;19.67;;
8466;SDS011;4270;48.148;11.648;2024-03-07T13:52:37;28.50;;;17.90;;
8466;SDS011;4270;48.148;11.648;2024-03-07T13:55:17;28.47;;;18.87;;
8466;SDS011;4270;48.148;11.648;2024-03-07T13:57:49;30.27;;;18.27;;
8466;SDS011;4270;48.148;11.648;2024-03-07T14:00:38;32.60;;;19.67;;
8466;SDS011;4270;48.148;11.648;2024-03-07T14:05:55;35.87;;;19.33;;
8466;SDS011;4270;48.148;11.648;2024-03-07T14:27:22;36.80;;;21.60;;
8466;SDS011;4270;48.148;11.648;2024-03-07T14:32:19;31.97;;;19.77;;
8466;SDS011;4270;48.148;11.648;2024-03-07T14:37:23;38.83;;;21.60;;
8466;SDS011;4270;48.148;11.648;2024-03-07T14:39:49;37.07;;;21.50;;
8466;SDS011;4270;48.148;11.648;2024-03-07T14:42:16;34.23;;;20.27;;
8466;SDS011;4270;48.148;11.648;2024-03-07T14:44:44;32.97;;;19.93;;
8466;SDS011;4270;48.148;11.648;2024-03-07T14:47:13;34.07;;;21.00;;
8466;SDS011;4270;48.148;11.648;2024-03-07T14:49:39;29.77;;;19.87;;
8466;SDS011;4270;48.148;11.648;2024-03-07T14:52:05;33.00;;;18.80;;
8466;SDS011;4270;48.148;11.648;2024-03-07T14:54:35;31.83;;;18.57;;
8466;SDS011;4270;48.148;11.648;2024-03-07T14:57:01;29.00;;;18.90;;
8466;SDS011;4270;48.148;11.648;2024-03-07T14:59:29;28.40;;;18.23;;
8466;SDS011;4270;48.148;11.648;2024-03-07T15:01:54;31.10;;;18.40;;
8466;SDS011;4270;48.148;11.648;2024-03-07T15:04:20;29.37;;;17.57;;
8466;SDS011;4270;48.148;11.648;2024-03-07T15:06:46;29.97;;;17.40;;
8466;SDS011;4270;48.148;11.648;2024-03-07T15:09:11;25.43;;;15.90;;